sensor_id;sensor_type;location;lat;lon;timestamp;P1;durP1;ratioP1;P2;durP2;ratioP2
69188;SDS011;56302;52.322;5.926;2023-03-12T00:01:08;9.63;;;3.73;;
69188;SDS011;56302;52.322;5.926;2023-03-12T00:03:34;9.35;;;4.07;;
69188;SDS011;56302;52.322;5.926;2023-03-12T00:06:01;8.23;;;4.07;;
69188;SDS011;56302;52.322;5.926;2023-03-12T00:08:27;10.02;;;3.85;;
69188;SDS011;56302;52.322;5.926;2023-03-12T00:10:53;10.13;;;4.67;;
69188;SDS011;56302;52.322;5.926;2023-03-12T00:13:18;9.23;;;4.20;;
69188;SDS011;56302;52.322;5.926;2023-03-12T00:15:44;9.80;;;4.70;;
69188;SDS011;56302;52.322;5.926;2023-03-12T00:18:09;10.23;;;4.40;;
69188;SDS011;56302;52.322;5.926;2023-03-12T00:20:35;12.27;;;4.60;;
69188;SDS011;56302;52.322;5.926;2023-03-12T00:23:00;10.13;;;4.60;;
69188;SDS011;56302;52.322;5.926;2023-03-12T00:25:26;10.60;;;4.47;;
69188;SDS011;56302;52.322;5.926;2023-03-12T00:27:51;8.47;;;4.00;;
69188;SDS011;56302;52.322;5.926;2023-03-12T00:30:17;7.77;;;3.70;;
69188;SDS011;56302;52.322;5.926;2023-03-12T00:32:43;8.00;;;3.53;;
69188;SDS011;56302;52.322;5.926;2023-03-12T00:35:08;7.87;;;3.60;;
69188;SDS011;56302;52.322;5.926;2023-03-12T00:37:35;8.40;;;3.53;;
69188;SDS011;56302;52.322;5.926;2023-03-12T00:40:01;9.38;;;3.63;;
69188;SDS011;56302;52.322;5.926;2023-03-12T00:42:29;8.37;;;3.40;;
69188;SDS011;56302;52.322;5.926;2023-03-12T00:44:55;8.57;;;3.97;;
69188;SDS011;56302;52.322;5.926;2023-03-12T00:47:20;8.73;;;3.87;;
69188;SDS011;56302;52.322;5.926;2023-03-12T00:49:46;8.40;;;4.20;;
69188;SDS011;56302;52.322;5.926;2023-03-12T00:52:11;10.50;;;4.20;;
69188;SDS011;56302;52.322;5.926;2023-03-12T00:54:37;12.47;;;3.90;;
69188;SDS011;56302;52.322;5.926;2023-03-12T00:57:02;8.80;;;3.67;;
69188;SDS011;56302;52.322;5.926;2023-03-12T00:59:28;8.93;;;4.40;;
69188;SDS011;56302;52.322;5.926;2023-03-12T01:01:54;10.47;;;4.80;;
69188;SDS011;56302;52.322;5.926;2023-03-12T01:04:19;13.13;;;5.07;;
69188;SDS011;56302;52.322;5.926;2023-03-12T01:06:45;28.27;;;6.13;;
69188;SDS011;56302;52.322;5.926;2023-03-12T01:09:10;13.93;;;5.70;;
69188;SDS011;56302;52.322;5.926;2023-03-12T01:11:36;11.98;;;5.93;;
69188;SDS011;56302;52.322;5.926;2023-03-12T01:14:03;16.27;;;6.40;;
69188;SDS011;56302;52.322;5.926;2023-03-12T01:16:30;13.40;;;5.72;;
69188;SDS011;56302;52.322;5.926;2023-03-12T01:18:56;13.13;;;5.90;;
69188;SDS011;56302;52.322;5.926;2023-03-12T01:21:22;12.70;;;6.37;;
69188;SDS011;56302;52.322;5.926;2023-03-12T01:23:49;15.10;;;6.38;;
69188;SDS011;56302;52.322;5.926;2023-03-12T01:26:15;13.50;;;5.70;;
69188;SDS011;56302;52.322;5.926;2023-03-12T01:28:41;10.87;;;5.03;;
69188;SDS011;56302;52.322;5.926;2023-03-12T01:31:10;13.10;;;5.32;;
69188;SDS011;56302;52.322;5.926;2023-03-12T01:33:38;10.80;;;5.43;;
69188;SDS011;56302;52.322;5.926;2023-03-12T01:36:04;13.07;;;5.70;;
69188;SDS011;56302;52.322;5.926;2023-03-12T01:38:39;11.40;;;5.70;;
69188;SDS011;56302;52.322;5.926;2023-03-12T01:41:04;12.27;;;5.93;;
69188;SDS011;56302;52.322;5.926;2023-03-12T01:43:31;14.15;;;6.30;;
69188;SDS011;56302;52.322;5.926;2023-03-12T01:48:41;12.00;;;5.90;;
69188;SDS011;56302;52.322;5.926;2023-03-12T01:51:10;9.40;;;6.07;;
69188;SDS011;56302;52.322;5.926;2023-03-12T01:53:37;13.32;;;6.53;;
69188;SDS011;56302;52.322;5.926;2023-03-12T01:56:06;13.70;;;6.72;;
69188;SDS011;56302;52.322;5.926;2023-03-12T01:58:33;13.47;;;6.37;;
69188;SDS011;56302;52.322;5.926;2023-03-12T02:01:01;11.90;;;6.57;;
69188;SDS011;56302;52.322;5.926;2023-03-12T02:03:26;13.93;;;6.80;;
69188;SDS011;56302;52.322;5.926;2023-03-12T02:06:02;14.77;;;7.40;;
69188;SDS011;56302;52.322;5.926;2023-03-12T02:08:36;12.43;;;6.55;;
69188;SDS011;56302;52.322;5.926;2023-03-12T02:11:04;14.95;;;7.78;;
69188;SDS011;56302;52.322;5.926;2023-03-12T02:13:30;13.52;;;7.60;;
69188;SDS011;56302;52.322;5.926;2023-03-12T02:15:56;16.27;;;7.17;;
69188;SDS011;56302;52.322;5.926;2023-03-12T02:18:21;18.70;;;8.63;;
69188;SDS011;56302;52.322;5.926;2023-03-12T02:20:49;18.90;;;8.80;;
69188;SDS011;56302;52.322;5.926;2023-03-12T02:23:35;15.80;;;8.57;;
69188;SDS011;56302;52.322;5.926;2023-03-12T02:26:07;19.43;;;7.43;;
69188;SDS011;56302;52.322;5.926;2023-03-12T02:28:35;13.05;;;6.85;;
69188;SDS011;56302;52.322;5.926;2023-03-12T02:31:08;14.80;;;7.40;;
69188;SDS011;56302;52.322;5.926;2023-03-12T02:33:38;14.13;;;7.40;;
69188;SDS011;56302;52.322;5.926;2023-03-12T02:36:03;13.33;;;7.00;;
69188;SDS011;56302;52.322;5.926;2023-03-12T02:41:10;13.20;;;7.13;;
69188;SDS011;56302;52.322;5.926;2023-03-12T02:43:50;15.50;;;6.87;;
69188;SDS011;56302;52.322;5.926;2023-03-12T02:46:24;12.82;;;6.75;;
69188;SDS011;56302;52.322;5.926;2023-03-12T02:48:51;11.63;;;6.57;;
69188;SDS011;56302;52.322;5.926;2023-03-12T02:51:17;14.27;;;6.55;;
69188;SDS011;56302;52.322;5.926;2023-03-12T02:53:43;12.63;;;7.23;;
69188;SDS011;56302;52.322;5.926;2023-03-12T02:56:09;13.10;;;7.00;;
69188;SDS011;56302;52.322;5.926;2023-03-12T02:58:34;11.43;;;6.53;;
69188;SDS011;56302;52.322;5.926;2023-03-12T03:01:01;13.40;;;6.82;;
69188;SDS011;56302;52.322;5.926;2023-03-12T03:03:26;15.67;;;6.60;;
69188;SDS011;56302;52.322;5.926;2023-03-12T03:05:52;14.10;;;6.57;;
69188;SDS011;56302;52.322;5.926;2023-03-12T03:08:18;14.88;;;6.68;;
69188;SDS011;56302;52.322;5.926;2023-03-12T03:10:43;16.10;;;7.10;;
69188;SDS011;56302;52.322;5.926;2023-03-12T03:13:09;17.97;;;6.30;;
69188;SDS011;56302;52.322;5.926;2023-03-12T03:15:34;15.60;;;6.13;;
69188;SDS011;56302;52.322;5.926;2023-03-12T03:18:00;16.17;;;6.53;;
69188;SDS011;56302;52.322;5.926;2023-03-12T03:20:28;12.18;;;5.57;;
69188;SDS011;56302;52.322;5.926;2023-03-12T03:22:53;15.95;;;6.07;;
69188;SDS011;56302;52.322;5.926;2023-03-12T03:25:19;12.00;;;6.07;;
69188;SDS011;56302;52.322;5.926;2023-03-12T03:27:47;14.30;;;6.22;;
69188;SDS011;56302;52.322;5.926;2023-03-12T03:30:13;12.37;;;5.87;;
69188;SDS011;56302;52.322;5.926;2023-03-12T03:32:40;13.38;;;6.00;;
69188;SDS011;56302;52.322;5.926;2023-03-12T03:35:06;16.85;;;6.10;;
69188;SDS011;56302;52.322;5.926;2023-03-12T03:37:32;12.77;;;5.97;;
69188;SDS011;56302;52.322;5.926;2023-03-12T03:39:57;14.87;;;6.43;;
69188;SDS011;56302;52.322;5.926;2023-03-12T03:42:23;10.97;;;5.80;;
69188;SDS011;56302;52.322;5.926;2023-03-12T03:44:48;12.45;;;5.57;;
69188;SDS011;56302;52.322;5.926;2023-03-12T03:47:14;13.32;;;6.25;;
69188;SDS011;56302;52.322;5.926;2023-03-12T03:49:40;11.67;;;6.30;;
69188;SDS011;56302;52.322;5.926;2023-03-12T03:52:05;16.10;;;6.40;;
69188;SDS011;56302;52.322;5.926;2023-03-12T03:54:31;15.53;;;6.73;;
69188;SDS011;56302;52.322;5.926;2023-03-12T03:56:57;15.68;;;7.97;;
69188;SDS011;56302;52.322;5.926;2023-03-12T03:59:24;16.70;;;8.20;;
69188;SDS011;56302;52.322;5.926;2023-03-12T04:01:50;18.00;;;8.27;;
69188;SDS011;56302;52.322;5.926;2023-03-12T04:04:16;19.65;;;9.27;;
69188;SDS011;56302;52.322;5.926;2023-03-12T04:06:41;18.77;;;9.23;;
69188;SDS011;56302;52.322;5.926;2023-03-12T04:09:07;19.75;;;9.48;;
69188;SDS011;56302;52.322;5.926;2023-03-12T04:11:32;24.02;;;11.02;;
69188;SDS011;56302;52.322;5.926;2023-03-12T04:13:58;22.60;;;11.37;;
69188;SDS011;56302;52.322;5.926;2023-03-12T04:16:24;26.27;;;12.13;;
69188;SDS011;56302;52.322;5.926;2023-03-12T04:18:49;25.60;;;12.05;;
69188;SDS011;56302;52.322;5.926;2023-03-12T04:21:15;22.53;;;11.20;;
69188;SDS011;56302;52.322;5.926;2023-03-12T04:23:40;26.88;;;10.90;;
69188;SDS011;56302;52.322;5.926;2023-03-12T04:26:06;24.67;;;10.73;;
69188;SDS011;56302;52.322;5.926;2023-03-12T04:28:32;18.00;;;9.32;;
69188;SDS011;56302;52.322;5.926;2023-03-12T04:31:00;17.20;;;8.47;;
69188;SDS011;56302;52.322;5.926;2023-03-12T04:33:27;18.38;;;8.93;;
69188;SDS011;56302;52.322;5.926;2023-03-12T04:35:55;19.30;;;8.32;;
69188;SDS011;56302;52.322;5.926;2023-03-12T04:38:21;21.52;;;8.98;;
69188;SDS011;56302;52.322;5.926;2023-03-12T04:41:00;20.23;;;9.37;;
69188;SDS011;56302;52.322;5.926;2023-03-12T04:43:32;16.23;;;7.25;;
69188;SDS011;56302;52.322;5.926;2023-03-12T04:45:58;18.50;;;7.80;;
69188;SDS011;56302;52.322;5.926;2023-03-12T04:48:24;14.70;;;6.55;;
69188;SDS011;56302;52.322;5.926;2023-03-12T04:50:50;13.43;;;6.78;;
69188;SDS011;56302;52.322;5.926;2023-03-12T04:53:16;13.37;;;6.10;;
69188;SDS011;56302;52.322;5.926;2023-03-12T04:55:42;11.75;;;6.10;;
69188;SDS011;56302;52.322;5.926;2023-03-12T04:58:08;19.20;;;6.33;;
69188;SDS011;56302;52.322;5.926;2023-03-12T05:00:33;13.13;;;6.10;;
69188;SDS011;56302;52.322;5.926;2023-03-12T05:02:59;10.50;;;5.60;;
69188;SDS011;56302;52.322;5.926;2023-03-12T05:05:25;12.93;;;5.43;;
69188;SDS011;56302;52.322;5.926;2023-03-12T05:07:50;16.27;;;5.82;;
69188;SDS011;56302;52.322;5.926;2023-03-12T05:10:16;11.27;;;5.00;;
69188;SDS011;56302;52.322;5.926;2023-03-12T05:12:41;12.53;;;4.63;;
69188;SDS011;56302;52.322;5.926;2023-03-12T05:15:07;12.95;;;4.78;;
69188;SDS011;56302;52.322;5.926;2023-03-12T05:17:33;14.60;;;4.60;;
69188;SDS011;56302;52.322;5.926;2023-03-12T05:19:58;9.55;;;3.97;;
69188;SDS011;56302;52.322;5.926;2023-03-12T05:22:24;9.23;;;3.63;;
69188;SDS011;56302;52.322;5.926;2023-03-12T05:24:49;10.13;;;3.83;;
69188;SDS011;56302;52.322;5.926;2023-03-12T05:27:15;8.25;;;3.30;;
69188;SDS011;56302;52.322;5.926;2023-03-12T05:29:40;11.75;;;4.18;;
69188;SDS011;56302;52.322;5.926;2023-03-12T05:32:06;7.37;;;3.40;;
69188;SDS011;56302;52.322;5.926;2023-03-12T05:34:32;7.60;;;3.63;;
69188;SDS011;56302;52.322;5.926;2023-03-12T05:36:57;9.13;;;3.40;;
69188;SDS011;56302;52.322;5.926;2023-03-12T05:39:23;9.00;;;3.53;;
69188;SDS011;56302;52.322;5.926;2023-03-12T05:41:50;6.80;;;2.97;;
69188;SDS011;56302;52.322;5.926;2023-03-12T05:44:20;10.53;;;3.40;;
69188;SDS011;56302;52.322;5.926;2023-03-12T05:46:46;8.65;;;3.40;;
69188;SDS011;56302;52.322;5.926;2023-03-12T05:49:12;6.13;;;2.47;;
69188;SDS011;56302;52.322;5.926;2023-03-12T05:51:38;7.17;;;2.47;;
69188;SDS011;56302;52.322;5.926;2023-03-12T05:54:03;6.37;;;2.40;;
69188;SDS011;56302;52.322;5.926;2023-03-12T05:56:29;7.57;;;2.47;;
69188;SDS011;56302;52.322;5.926;2023-03-12T05:58:54;8.50;;;2.37;;
69188;SDS011;56302;52.322;5.926;2023-03-12T06:01:24;6.83;;;2.17;;
69188;SDS011;56302;52.322;5.926;2023-03-12T06:03:51;7.13;;;2.45;;
69188;SDS011;56302;52.322;5.926;2023-03-12T06:06:16;6.03;;;2.50;;
69188;SDS011;56302;52.322;5.926;2023-03-12T06:08:42;4.63;;;2.40;;
69188;SDS011;56302;52.322;5.926;2023-03-12T06:11:08;7.18;;;2.35;;
69188;SDS011;56302;52.322;5.926;2023-03-12T06:13:33;6.93;;;2.45;;
69188;SDS011;56302;52.322;5.926;2023-03-12T06:16:06;7.40;;;2.57;;
69188;SDS011;56302;52.322;5.926;2023-03-12T06:18:39;7.18;;;2.40;;
69188;SDS011;56302;52.322;5.926;2023-03-12T06:21:08;8.07;;;2.80;;
69188;SDS011;56302;52.322;5.926;2023-03-12T06:23:35;7.38;;;2.25;;
69188;SDS011;56302;52.322;5.926;2023-03-12T06:26:01;6.90;;;2.65;;
69188;SDS011;56302;52.322;5.926;2023-03-12T06:28:26;8.48;;;2.88;;
69188;SDS011;56302;52.322;5.926;2023-03-12T06:30:52;11.53;;;2.87;;
69188;SDS011;56302;52.322;5.926;2023-03-12T06:33:18;5.65;;;2.60;;
69188;SDS011;56302;52.322;5.926;2023-03-12T06:35:44;5.67;;;2.53;;
69188;SDS011;56302;52.322;5.926;2023-03-12T06:38:09;8.48;;;2.67;;
69188;SDS011;56302;52.322;5.926;2023-03-12T06:40:35;6.37;;;2.77;;
69188;SDS011;56302;52.322;5.926;2023-03-12T06:43:00;6.93;;;2.63;;
69188;SDS011;56302;52.322;5.926;2023-03-12T06:45:26;7.47;;;2.65;;
69188;SDS011;56302;52.322;5.926;2023-03-12T06:47:51;6.13;;;2.63;;
69188;SDS011;56302;52.322;5.926;2023-03-12T06:50:17;7.27;;;3.10;;
69188;SDS011;56302;52.322;5.926;2023-03-12T06:52:42;9.20;;;2.77;;
69188;SDS011;56302;52.322;5.926;2023-03-12T06:55:08;7.53;;;3.17;;
69188;SDS011;56302;52.322;5.926;2023-03-12T06:57:34;6.57;;;3.10;;
69188;SDS011;56302;52.322;5.926;2023-03-12T06:59:59;5.97;;;2.87;;
69188;SDS011;56302;52.322;5.926;2023-03-12T07:02:25;9.57;;;3.28;;
69188;SDS011;56302;52.322;5.926;2023-03-12T07:04:50;5.50;;;3.03;;
69188;SDS011;56302;52.322;5.926;2023-03-12T07:07:16;9.20;;;3.23;;
69188;SDS011;56302;52.322;5.926;2023-03-12T07:09:42;8.93;;;2.85;;
69188;SDS011;56302;52.322;5.926;2023-03-12T07:12:07;6.90;;;2.92;;
69188;SDS011;56302;52.322;5.926;2023-03-12T07:14:33;9.40;;;3.30;;
69188;SDS011;56302;52.322;5.926;2023-03-12T07:16:59;9.75;;;3.20;;
69188;SDS011;56302;52.322;5.926;2023-03-12T07:19:26;8.57;;;3.20;;
69188;SDS011;56302;52.322;5.926;2023-03-12T07:21:53;9.05;;;3.38;;
69188;SDS011;56302;52.322;5.926;2023-03-12T07:24:19;6.68;;;3.03;;
69188;SDS011;56302;52.322;5.926;2023-03-12T07:26:45;7.80;;;3.20;;
69188;SDS011;56302;52.322;5.926;2023-03-12T07:29:11;8.43;;;3.13;;
69188;SDS011;56302;52.322;5.926;2023-03-12T07:31:36;9.38;;;3.85;;
69188;SDS011;56302;52.322;5.926;2023-03-12T07:34:02;9.20;;;3.63;;
69188;SDS011;56302;52.322;5.926;2023-03-12T07:36:27;9.10;;;3.25;;
69188;SDS011;56302;52.322;5.926;2023-03-12T07:38:53;9.15;;;3.75;;
69188;SDS011;56302;52.322;5.926;2023-03-12T07:41:19;8.57;;;3.80;;
69188;SDS011;56302;52.322;5.926;2023-03-12T07:43:45;10.33;;;4.37;;
69188;SDS011;56302;52.322;5.926;2023-03-12T07:46:10;7.32;;;3.85;;
69188;SDS011;56302;52.322;5.926;2023-03-12T07:48:36;8.20;;;3.73;;
69188;SDS011;56302;52.322;5.926;2023-03-12T07:51:02;12.10;;;3.75;;
69188;SDS011;56302;52.322;5.926;2023-03-12T07:53:28;10.30;;;3.75;;
69188;SDS011;56302;52.322;5.926;2023-03-12T07:55:53;11.00;;;3.88;;
69188;SDS011;56302;52.322;5.926;2023-03-12T07:58:19;8.70;;;3.93;;
69188;SDS011;56302;52.322;5.926;2023-03-12T08:00:44;13.30;;;4.27;;
69188;SDS011;56302;52.322;5.926;2023-03-12T08:03:10;10.75;;;3.95;;
69188;SDS011;56302;52.322;5.926;2023-03-12T08:05:37;10.20;;;4.27;;
69188;SDS011;56302;52.322;5.926;2023-03-12T08:08:02;9.93;;;3.92;;
69188;SDS011;56302;52.322;5.926;2023-03-12T08:10:28;14.27;;;4.70;;
69188;SDS011;56302;52.322;5.926;2023-03-12T08:12:53;12.13;;;4.93;;
69188;SDS011;56302;52.322;5.926;2023-03-12T08:15:19;8.97;;;4.50;;
69188;SDS011;56302;52.322;5.926;2023-03-12T08:17:44;9.43;;;4.03;;
69188;SDS011;56302;52.322;5.926;2023-03-12T08:20:10;13.25;;;4.72;;
69188;SDS011;56302;52.322;5.926;2023-03-12T08:22:37;10.13;;;4.63;;
69188;SDS011;56302;52.322;5.926;2023-03-12T08:25:03;10.85;;;4.57;;
69188;SDS011;56302;52.322;5.926;2023-03-12T08:27:30;12.05;;;4.75;;
69188;SDS011;56302;52.322;5.926;2023-03-12T08:29:56;11.68;;;4.88;;
69188;SDS011;56302;52.322;5.926;2023-03-12T08:32:22;11.53;;;4.33;;
69188;SDS011;56302;52.322;5.926;2023-03-12T08:34:48;13.98;;;5.00;;
69188;SDS011;56302;52.322;5.926;2023-03-12T08:37:13;10.70;;;4.53;;
69188;SDS011;56302;52.322;5.926;2023-03-12T08:39:39;8.80;;;4.63;;
69188;SDS011;56302;52.322;5.926;2023-03-12T08:42:04;15.63;;;5.45;;
69188;SDS011;56302;52.322;5.926;2023-03-12T08:44:31;10.05;;;4.85;;
69188;SDS011;56302;52.322;5.926;2023-03-12T08:46:57;11.67;;;4.90;;
69188;SDS011;56302;52.322;5.926;2023-03-12T08:49:22;11.97;;;5.60;;
69188;SDS011;56302;52.322;5.926;2023-03-12T08:51:49;12.02;;;5.50;;
69188;SDS011;56302;52.322;5.926;2023-03-12T08:54:15;10.27;;;5.50;;
69188;SDS011;56302;52.322;5.926;2023-03-12T08:56:42;11.68;;;5.53;;
69188;SDS011;56302;52.322;5.926;2023-03-12T08:59:08;9.63;;;5.30;;
69188;SDS011;56302;52.322;5.926;2023-03-12T09:01:35;12.10;;;5.63;;
69188;SDS011;56302;52.322;5.926;2023-03-12T09:04:01;14.45;;;6.40;;
69188;SDS011;56302;52.322;5.926;2023-03-12T09:06:28;10.80;;;5.80;;
69188;SDS011;56302;52.322;5.926;2023-03-12T09:08:53;14.82;;;5.57;;
69188;SDS011;56302;52.322;5.926;2023-03-12T09:11:19;11.63;;;5.47;;
69188;SDS011;56302;52.322;5.926;2023-03-12T09:13:44;14.03;;;6.33;;
69188;SDS011;56302;52.322;5.926;2023-03-12T09:16:10;9.40;;;5.30;;
69188;SDS011;56302;52.322;5.926;2023-03-12T09:18:36;11.80;;;5.87;;
69188;SDS011;56302;52.322;5.926;2023-03-12T09:21:01;8.93;;;5.10;;
69188;SDS011;56302;52.322;5.926;2023-03-12T09:23:27;11.90;;;5.38;;
69188;SDS011;56302;52.322;5.926;2023-03-12T09:25:53;10.30;;;5.38;;
69188;SDS011;56302;52.322;5.926;2023-03-12T09:28:19;12.53;;;6.47;;
69188;SDS011;56302;52.322;5.926;2023-03-12T09:30:45;9.60;;;5.07;;
69188;SDS011;56302;52.322;5.926;2023-03-12T09:33:11;13.95;;;6.18;;
69188;SDS011;56302;52.322;5.926;2023-03-12T09:35:39;12.10;;;6.20;;
69188;SDS011;56302;52.322;5.926;2023-03-12T09:38:05;10.23;;;5.53;;
69188;SDS011;56302;52.322;5.926;2023-03-12T09:40:32;12.50;;;6.45;;
69188;SDS011;56302;52.322;5.926;2023-03-12T09:43:02;11.18;;;6.32;;
69188;SDS011;56302;52.322;5.926;2023-03-12T09:45:34;12.77;;;6.93;;
69188;SDS011;56302;52.322;5.926;2023-03-12T09:48:03;13.18;;;6.35;;
69188;SDS011;56302;52.322;5.926;2023-03-12T09:53:00;13.98;;;7.28;;
69188;SDS011;56302;52.322;5.926;2023-03-12T09:55:46;11.13;;;6.70;;
69188;SDS011;56302;52.322;5.926;2023-03-12T09:58:15;13.23;;;6.97;;
69188;SDS011;56302;52.322;5.926;2023-03-12T10:00:57;14.88;;;6.85;;
69188;SDS011;56302;52.322;5.926;2023-03-12T10:03:51;14.52;;;7.40;;
69188;SDS011;56302;52.322;5.926;2023-03-12T10:09:19;15.13;;;7.38;;
69188;SDS011;56302;52.322;5.926;2023-03-12T10:12:12;18.87;;;8.30;;
69188;SDS011;56302;52.322;5.926;2023-03-12T10:17:22;16.30;;;8.85;;
69188;SDS011;56302;52.322;5.926;2023-03-12T10:22:55;22.52;;;8.60;;
69188;SDS011;56302;52.322;5.926;2023-03-12T10:28:59;20.95;;;9.38;;
69188;SDS011;56302;52.322;5.926;2023-03-12T10:31:47;17.60;;;9.38;;
69188;SDS011;56302;52.322;5.926;2023-03-12T10:37:21;19.33;;;10.27;;
69188;SDS011;56302;52.322;5.926;2023-03-12T10:39:50;24.27;;;10.10;;
69188;SDS011;56302;52.322;5.926;2023-03-12T10:42:18;23.75;;;11.15;;
69188;SDS011;56302;52.322;5.926;2023-03-12T10:44:46;20.02;;;10.05;;
69188;SDS011;56302;52.322;5.926;2023-03-12T10:47:24;21.27;;;10.77;;
69188;SDS011;56302;52.322;5.926;2023-03-12T10:52:45;21.93;;;10.33;;
69188;SDS011;56302;52.322;5.926;2023-03-12T10:55:19;22.00;;;10.70;;
69188;SDS011;56302;52.322;5.926;2023-03-12T10:57:54;26.10;;;11.07;;
69188;SDS011;56302;52.322;5.926;2023-03-12T11:00:25;21.92;;;10.98;;
69188;SDS011;56302;52.322;5.926;2023-03-12T11:05:25;23.90;;;11.73;;
69188;SDS011;56302;52.322;5.926;2023-03-12T11:07:59;23.90;;;11.57;;
69188;SDS011;56302;52.322;5.926;2023-03-12T11:10:37;28.20;;;11.88;;
69188;SDS011;56302;52.322;5.926;2023-03-12T11:13:23;25.02;;;12.20;;
69188;SDS011;56302;52.322;5.926;2023-03-12T11:18:53;25.37;;;13.63;;
69188;SDS011;56302;52.322;5.926;2023-03-12T11:21:32;30.52;;;12.15;;
69188;SDS011;56302;52.322;5.926;2023-03-12T11:24:05;29.63;;;13.32;;
69188;SDS011;56302;52.322;5.926;2023-03-12T11:26:37;26.92;;;12.38;;
69188;SDS011;56302;52.322;5.926;2023-03-12T11:31:44;32.13;;;13.70;;
69188;SDS011;56302;52.322;5.926;2023-03-12T11:34:25;27.35;;;13.02;;
69188;SDS011;56302;52.322;5.926;2023-03-12T11:36:55;35.20;;;14.50;;
69188;SDS011;56302;52.322;5.926;2023-03-12T11:39:45;28.35;;;13.73;;
69188;SDS011;56302;52.322;5.926;2023-03-12T11:47:58;35.67;;;14.75;;
69188;SDS011;56302;52.322;5.926;2023-03-12T11:50:44;32.45;;;13.95;;
69188;SDS011;56302;52.322;5.926;2023-03-12T11:55:48;30.00;;;13.57;;
69188;SDS011;56302;52.322;5.926;2023-03-12T11:58:51;25.93;;;13.87;;
69188;SDS011;56302;52.322;5.926;2023-03-12T12:01:30;24.88;;;12.80;;
69188;SDS011;56302;52.322;5.926;2023-03-12T12:04:25;24.25;;;12.32;;
69188;SDS011;56302;52.322;5.926;2023-03-12T12:17:58;26.90;;;11.70;;
69188;SDS011;56302;52.322;5.926;2023-03-12T12:23:09;29.37;;;11.77;;
69188;SDS011;56302;52.322;5.926;2023-03-12T12:26:00;27.02;;;11.63;;
69188;SDS011;56302;52.322;5.926;2023-03-12T12:28:48;27.13;;;9.95;;
69188;SDS011;56302;52.322;5.926;2023-03-12T12:39:58;28.25;;;7.88;;
69188;SDS011;56302;52.322;5.926;2023-03-12T12:42:53;23.90;;;7.70;;
69188;SDS011;56302;52.322;5.926;2023-03-12T12:45:29;29.60;;;8.53;;
69188;SDS011;56302;52.322;5.926;2023-03-12T12:47:56;35.47;;;8.57;;
69188;SDS011;56302;52.322;5.926;2023-03-12T12:50:37;26.88;;;6.93;;
69188;SDS011;56302;52.322;5.926;2023-03-12T12:53:11;27.77;;;7.53;;
69188;SDS011;56302;52.322;5.926;2023-03-12T12:55:48;32.28;;;7.03;;
69188;SDS011;56302;52.322;5.926;2023-03-12T12:58:45;40.20;;;7.30;;
69188;SDS011;56302;52.322;5.926;2023-03-12T13:01:34;29.58;;;6.50;;
69188;SDS011;56302;52.322;5.926;2023-03-12T13:04:05;24.40;;;7.18;;
69188;SDS011;56302;52.322;5.926;2023-03-12T13:06:52;24.27;;;6.87;;
69188;SDS011;56302;52.322;5.926;2023-03-12T13:09:20;27.10;;;7.40;;
69188;SDS011;56302;52.322;5.926;2023-03-12T13:11:58;32.13;;;6.82;;
69188;SDS011;56302;52.322;5.926;2023-03-12T13:14:36;30.70;;;8.32;;
69188;SDS011;56302;52.322;5.926;2023-03-12T13:17:58;28.83;;;6.85;;
69188;SDS011;56302;52.322;5.926;2023-03-12T13:20:14;28.77;;;7.30;;
69188;SDS011;56302;52.322;5.926;2023-03-12T13:28:34;27.00;;;6.32;;
69188;SDS011;56302;52.322;5.926;2023-03-12T13:36:43;30.65;;;6.70;;
69188;SDS011;56302;52.322;5.926;2023-03-12T13:41:56;30.70;;;6.10;;
69188;SDS011;56302;52.322;5.926;2023-03-12T13:49:28;27.92;;;4.88;;
69188;SDS011;56302;52.322;5.926;2023-03-12T13:52:15;34.03;;;5.47;;
69188;SDS011;56302;52.322;5.926;2023-03-12T13:54:56;32.25;;;5.45;;
69188;SDS011;56302;52.322;5.926;2023-03-12T13:57:46;20.50;;;4.88;;
69188;SDS011;56302;52.322;5.926;2023-03-12T14:02:43;34.63;;;6.13;;
69188;SDS011;56302;52.322;5.926;2023-03-12T14:05:13;24.30;;;5.80;;
69188;SDS011;56302;52.322;5.926;2023-03-12T14:18:42;26.95;;;5.63;;
69188;SDS011;56302;52.322;5.926;2023-03-12T14:21:09;24.52;;;5.68;;
69188;SDS011;56302;52.322;5.926;2023-03-12T14:23:40;25.73;;;6.18;;
69188;SDS011;56302;52.322;5.926;2023-03-12T14:26:11;25.57;;;6.20;;
69188;SDS011;56302;52.322;5.926;2023-03-12T14:28:51;26.83;;;4.95;;
69188;SDS011;56302;52.322;5.926;2023-03-12T14:31:24;33.75;;;5.55;;
69188;SDS011;56302;52.322;5.926;2023-03-12T14:33:53;31.70;;;6.07;;
69188;SDS011;56302;52.322;5.926;2023-03-12T14:36:20;30.10;;;6.22;;
69188;SDS011;56302;52.322;5.926;2023-03-12T14:38:50;31.20;;;5.87;;
69188;SDS011;56302;52.322;5.926;2023-03-12T14:41:24;30.83;;;5.90;;
69188;SDS011;56302;52.322;5.926;2023-03-12T14:43:56;25.67;;;6.38;;
69188;SDS011;56302;52.322;5.926;2023-03-12T14:46:45;33.80;;;5.50;;
69188;SDS011;56302;52.322;5.926;2023-03-12T14:49:18;28.70;;;5.28;;
69188;SDS011;56302;52.322;5.926;2023-03-12T14:51:44;27.80;;;4.63;;
69188;SDS011;56302;52.322;5.926;2023-03-12T14:54:17;25.00;;;4.63;;
69188;SDS011;56302;52.322;5.926;2023-03-12T14:56:44;19.90;;;3.80;;
69188;SDS011;56302;52.322;5.926;2023-03-12T14:59:19;28.92;;;5.43;;
69188;SDS011;56302;52.322;5.926;2023-03-12T15:01:51;24.17;;;3.97;;
69188;SDS011;56302;52.322;5.926;2023-03-12T15:04:22;27.92;;;4.68;;
69188;SDS011;56302;52.322;5.926;2023-03-12T15:06:52;24.27;;;4.13;;
69188;SDS011;56302;52.322;5.926;2023-03-12T15:09:21;22.98;;;3.80;;
69188;SDS011;56302;52.322;5.926;2023-03-12T15:11:54;23.35;;;3.85;;
69188;SDS011;56302;52.322;5.926;2023-03-12T15:14:21;22.65;;;3.35;;
69188;SDS011;56302;52.322;5.926;2023-03-12T15:16:48;23.00;;;3.87;;
69188;SDS011;56302;52.322;5.926;2023-03-12T15:19:15;21.52;;;2.90;;
69188;SDS011;56302;52.322;5.926;2023-03-12T15:21:45;27.42;;;2.95;;
69188;SDS011;56302;52.322;5.926;2023-03-12T15:24:11;19.40;;;2.97;;
69188;SDS011;56302;52.322;5.926;2023-03-12T15:26:38;23.48;;;3.42;;
69188;SDS011;56302;52.322;5.926;2023-03-12T15:29:14;20.58;;;3.17;;
69188;SDS011;56302;52.322;5.926;2023-03-12T15:31:50;22.27;;;2.88;;
69188;SDS011;56302;52.322;5.926;2023-03-12T15:34:36;27.92;;;3.75;;
69188;SDS011;56302;52.322;5.926;2023-03-12T15:37:24;16.97;;;2.73;;
69188;SDS011;56302;52.322;5.926;2023-03-12T15:40:02;19.20;;;2.92;;
69188;SDS011;56302;52.322;5.926;2023-03-12T15:42:40;23.10;;;3.10;;
69188;SDS011;56302;52.322;5.926;2023-03-12T15:45:15;19.42;;;2.92;;
69188;SDS011;56302;52.322;5.926;2023-03-12T15:47:47;21.90;;;3.05;;
69188;SDS011;56302;52.322;5.926;2023-03-12T15:52:58;20.58;;;2.58;;
69188;SDS011;56302;52.322;5.926;2023-03-12T15:58:40;19.75;;;2.80;;
69188;SDS011;56302;52.322;5.926;2023-03-12T16:01:13;19.58;;;3.60;;
69188;SDS011;56302;52.322;5.926;2023-03-12T16:03:40;19.23;;;3.23;;
69188;SDS011;56302;52.322;5.926;2023-03-12T16:06:19;20.95;;;3.28;;
69188;SDS011;56302;52.322;5.926;2023-03-12T16:08:50;25.83;;;3.55;;
69188;SDS011;56302;52.322;5.926;2023-03-12T16:11:21;21.02;;;3.33;;
69188;SDS011;56302;52.322;5.926;2023-03-12T16:13:49;23.80;;;3.45;;
69188;SDS011;56302;52.322;5.926;2023-03-12T16:16:16;22.43;;;3.27;;
69188;SDS011;56302;52.322;5.926;2023-03-12T16:18:42;20.25;;;2.78;;
69188;SDS011;56302;52.322;5.926;2023-03-12T16:21:08;21.60;;;3.33;;
69188;SDS011;56302;52.322;5.926;2023-03-12T16:23:34;23.55;;;2.90;;
69188;SDS011;56302;52.322;5.926;2023-03-12T16:26:01;26.73;;;4.10;;
69188;SDS011;56302;52.322;5.926;2023-03-12T16:28:29;17.30;;;2.58;;
69188;SDS011;56302;52.322;5.926;2023-03-12T16:30:54;25.45;;;3.63;;